createdAt,value
2022-11-06T00:04:51.558Z,3.20
2022-11-06T00:10:54.935Z,3.03
2022-11-06T00:16:58.537Z,3.63
2022-11-06T00:23:03.601Z,3.30
2022-11-06T00:29:07.329Z,3.40
2022-11-06T00:35:10.929Z,3.65
2022-11-06T00:41:16.252Z,3.83
2022-11-06T00:47:19.787Z,3.15
2022-11-06T00:53:23.270Z,3.25
2022-11-06T00:59:28.033Z,4.00
2022-11-06T01:05:31.356Z,3.90
2022-11-06T01:11:59.580Z,3.90
2022-11-06T01:18:00.225Z,3.22
2022-11-06T01:24:04.712Z,3.67
2022-11-06T01:30:08.679Z,2.95
2022-11-06T01:36:14.091Z,3.22
2022-11-06T01:42:17.930Z,3.25
2022-11-06T01:48:22.865Z,2.67
2022-11-06T01:54:29.320Z,3.33
2022-11-06T02:00:32.943Z,4.07
2022-11-06T02:06:36.702Z,2.88
2022-11-06T02:12:55.263Z,3.70
2022-11-06T02:19:04.195Z,3.38
2022-11-06T02:25:14.902Z,3.47
2022-11-06T02:31:22.528Z,3.20
2022-11-06T02:37:28.831Z,2.75
2022-11-06T02:43:34.588Z,3.03
2022-11-06T02:49:42.464Z,2.65
2022-11-06T02:55:48.181Z,2.95
2022-11-06T03:01:52.623Z,3.55
2022-11-06T03:08:00.999Z,2.90
2022-11-06T03:14:07.674Z,2.83
2022-11-06T03:20:16.298Z,3.53
2022-11-06T03:26:23.551Z,3.38
2022-11-06T03:32:31.144Z,2.47
2022-11-06T03:38:41.061Z,2.88
2022-11-06T03:44:48.846Z,2.97
2022-11-06T03:50:55.897Z,3.75
2022-11-06T03:57:01.722Z,3.78
2022-11-06T04:03:08.365Z,3.20
2022-11-06T04:09:31.826Z,2.90
2022-11-06T04:15:37.665Z,3.35
2022-11-06T04:21:50.208Z,2.88
2022-11-06T04:28:01.103Z,3.75
2022-11-06T04:34:10.064Z,2.65
2022-11-06T04:40:18.166Z,3.58
2022-11-06T04:46:22.870Z,2.75
2022-11-06T04:52:27.548Z,2.60
2022-11-06T04:58:32.524Z,3.08
2022-11-06T05:04:36.319Z,2.47
2022-11-06T05:10:39.669Z,2.65
2022-11-06T05:16:44.359Z,2.50
2022-11-06T05:23:00.736Z,2.53
2022-11-06T05:29:04.329Z,2.28
2022-11-06T05:35:09.845Z,2.25
2022-11-06T05:41:13.223Z,1.55
2022-11-06T05:47:16.691Z,2.58
2022-11-06T05:53:21.540Z,1.48
2022-11-06T05:59:24.866Z,1.88
2022-11-06T06:05:28.194Z,2.42
2022-11-06T06:11:33.019Z,2.38
2022-11-06T06:17:36.433Z,2.17
2022-11-06T06:23:39.769Z,1.90
2022-11-06T06:29:44.470Z,1.40
2022-11-06T06:35:47.794Z,1.58
2022-11-06T06:41:51.159Z,1.88
2022-11-06T06:47:55.891Z,2.03
2022-11-06T06:53:59.477Z,2.25
2022-11-06T07:00:03.053Z,2.00
2022-11-06T07:06:08.583Z,2.00
2022-11-06T07:12:11.918Z,1.80
2022-11-06T07:18:15.526Z,1.60
2022-11-06T07:24:21.124Z,1.63
2022-11-06T07:30:24.609Z,1.60
2022-11-06T07:36:28.401Z,2.25
2022-11-06T07:42:33.142Z,2.20
2022-11-06T07:48:36.754Z,1.60
2022-11-06T07:54:40.054Z,1.88
2022-11-06T08:00:47.995Z,2.00
2022-11-06T08:06:51.532Z,2.10
2022-11-06T08:12:54.974Z,2.25
2022-11-06T08:18:59.992Z,1.70
2022-11-06T08:25:03.630Z,2.30
2022-11-06T08:31:07.247Z,2.10
2022-11-06T08:37:12.611Z,2.47
2022-11-06T08:43:16.242Z,1.73
2022-11-06T08:49:19.746Z,1.88
2022-11-06T08:55:24.589Z,1.60
2022-11-06T09:01:28.184Z,2.03
2022-11-06T09:07:32.190Z,2.35
2022-11-06T09:13:36.960Z,1.90
2022-11-06T09:19:40.303Z,1.65
2022-11-06T09:25:43.661Z,2.03
2022-11-06T09:31:48.780Z,2.42
2022-11-06T09:37:52.714Z,1.85
2022-11-06T09:44:05.671Z,1.88
2022-11-06T09:50:16.562Z,1.42
2022-11-06T09:56:21.790Z,2.38
2022-11-06T10:02:29.664Z,1.83
2022-11-06T10:08:34.867Z,2.17
2022-11-06T10:14:46.878Z,2.60
2022-11-06T10:20:53.427Z,2.13
2022-11-06T10:26:58.545Z,1.92
2022-11-06T10:33:09.514Z,3.00
2022-11-06T10:39:15.614Z,2.65
2022-11-06T10:45:20.586Z,2.88
2022-11-06T10:51:30.164Z,2.22
2022-11-06T10:57:38.782Z,2.50
2022-11-06T11:03:44.526Z,1.95
2022-11-06T11:09:50.749Z,1.67
2022-11-06T11:15:54.249Z,2.03
2022-11-06T11:22:00.592Z,1.90
2022-11-06T11:28:05.707Z,2.28
2022-11-06T11:34:17.056Z,1.55
2022-11-06T11:40:23.518Z,1.35
2022-11-06T11:46:27.408Z,1.20
2022-11-06T11:52:31.255Z,1.42
2022-11-06T11:58:35.996Z,1.15
2022-11-06T12:04:42.090Z,1.30
2022-11-06T12:10:46.012Z,1.30
2022-11-06T12:16:52.654Z,1.55
2022-11-06T12:22:57.791Z,2.17
2022-11-06T12:29:05.430Z,2.22
2022-11-06T12:35:15.214Z,2.65
2022-11-06T12:41:23.060Z,2.33
2022-11-06T12:47:31.422Z,1.88
2022-11-06T12:53:48.355Z,2.05
2022-11-06T12:59:58.581Z,2.05
2022-11-06T13:06:11.944Z,1.77
2022-11-06T13:12:21.044Z,2.17
2022-11-06T13:18:27.378Z,3.20
2022-11-06T13:24:33.967Z,1.58
2022-11-06T13:30:39.438Z,1.67
2022-11-06T13:36:43.391Z,1.48
2022-11-06T13:42:49.506Z,1.65
2022-11-06T13:48:59.635Z,1.60
2022-11-06T13:55:07.097Z,2.70
2022-11-06T14:01:16.510Z,1.60
2022-11-06T14:07:22.704Z,2.10
2022-11-06T14:13:30.578Z,1.80
2022-11-06T14:19:33.956Z,1.40
2022-11-06T14:25:48.274Z,1.90
2022-11-06T14:32:01.851Z,2.03
2022-11-06T14:38:18.583Z,2.60
2022-11-06T14:44:32.780Z,1.92
2022-11-06T14:50:39.091Z,1.63
2022-11-06T14:56:42.945Z,1.77
2022-11-06T15:02:47.771Z,1.80
2022-11-06T15:09:01.355Z,2.03
2022-11-06T15:15:08.379Z,2.30
2022-11-06T15:21:20.115Z,2.40
2022-11-06T15:27:25.613Z,3.80
2022-11-06T15:33:33.100Z,5.38
2022-11-06T15:39:40.802Z,2.50
2022-11-06T15:45:44.233Z,2.13
2022-11-06T15:51:54.958Z,2.58
2022-11-06T15:58:08.982Z,2.13
2022-11-06T16:04:16.050Z,2.30
2022-11-06T16:10:20.553Z,2.50
2022-11-06T16:16:35.617Z,2.42
2022-11-06T16:22:39.148Z,3.22
2022-11-06T16:28:44.677Z,2.92
2022-11-06T16:34:50.117Z,2.70
2022-11-06T16:40:55.948Z,2.08
2022-11-06T16:47:18.841Z,3.00
2022-11-06T16:53:25.548Z,3.83
2022-11-06T16:59:29.165Z,2.50
2022-11-06T17:05:33.911Z,3.45
2022-11-06T17:11:39.589Z,2.90
2022-11-06T17:17:44.278Z,3.63
2022-11-06T17:23:48.063Z,3.22
2022-11-06T17:29:57.051Z,2.92
2022-11-06T17:36:01.072Z,3.70
2022-11-06T17:42:04.578Z,6.20
2022-11-06T17:48:09.510Z,4.95
2022-11-06T17:54:13.551Z,3.90
2022-11-06T18:00:17.496Z,3.72
2022-11-06T18:06:22.243Z,6.45
2022-11-06T18:12:27.742Z,6.53
2022-11-06T18:18:31.223Z,3.50
2022-11-06T18:24:38.150Z,4.65
2022-11-06T18:30:41.780Z,3.17
2022-11-06T18:36:45.361Z,4.80
2022-11-06T18:42:50.206Z,3.72
2022-11-06T18:48:53.824Z,2.60
2022-11-06T18:55:00.838Z,4.03
2022-11-06T19:01:08.027Z,3.33
2022-11-06T19:07:11.459Z,2.80
2022-11-06T19:13:14.910Z,3.30
2022-11-06T19:19:25.343Z,4.20
2022-11-06T19:25:29.610Z,4.65
2022-11-06T19:31:34.069Z,3.60
2022-11-06T19:37:39.100Z,3.88
2022-11-06T19:43:42.466Z,3.10
2022-11-06T19:49:45.934Z,2.40
2022-11-06T19:55:51.176Z,2.28
2022-11-06T20:01:56.198Z,2.80
2022-11-06T20:07:59.902Z,3.15
2022-11-06T20:14:04.918Z,2.58
2022-11-06T20:20:09.039Z,2.78
2022-11-06T20:26:12.769Z,3.10
2022-11-06T20:32:19.184Z,2.53
2022-11-06T20:38:23.345Z,2.58
2022-11-06T20:44:26.751Z,2.33
2022-11-06T20:50:31.604Z,2.90
2022-11-06T20:56:35.243Z,2.35
2022-11-06T21:02:38.643Z,2.25
2022-11-06T21:08:43.623Z,2.60
2022-11-06T21:14:46.964Z,2.63
2022-11-06T21:20:50.659Z,2.10
2022-11-06T21:26:56.083Z,2.90
2022-11-06T21:32:59.480Z,2.63
2022-11-06T21:39:03.995Z,2.40
2022-11-06T21:45:14.557Z,1.85
2022-11-06T21:51:19.054Z,2.35
2022-11-06T21:57:23.193Z,2.13
2022-11-06T22:03:27.978Z,2.03
2022-11-06T22:09:31.466Z,2.67
2022-11-06T22:15:35.121Z,2.47
2022-11-06T22:21:40.780Z,2.50
2022-11-06T22:27:44.545Z,2.58
2022-11-06T22:33:52.358Z,2.15
2022-11-06T22:39:58.694Z,2.50
2022-11-06T22:46:02.916Z,2.17
2022-11-06T22:52:06.590Z,2.17
2022-11-06T22:58:11.399Z,3.47
2022-11-06T23:04:16.065Z,2.90
2022-11-06T23:10:28.769Z,2.30
2022-11-06T23:16:51.249Z,2.22
2022-11-06T23:22:54.913Z,2.45
2022-11-06T23:28:58.493Z,2.70
2022-11-06T23:35:04.809Z,2.25
2022-11-06T23:41:22.687Z,1.83
2022-11-06T23:47:26.163Z,1.88
2022-11-06T23:53:31.015Z,2.17
2022-11-06T23:59:34.374Z,1.85
